sensor_id;sensor_type;location;lat;lon;timestamp;pressure;altitude;pressure_sealevel;temperature;humidity
72262;BME280;60173;52.112;8.648;2023-04-02T00:01:37;100117.94;;;3.16;98.63
72262;BME280;60173;52.112;8.648;2023-04-02T00:04:24;100114.69;;;3.14;98.58
72262;BME280;60173;52.112;8.648;2023-04-02T00:06:53;100117.94;;;3.16;98.73
72262;BME280;60173;52.112;8.648;2023-04-02T00:09:25;100133.94;;;3.06;98.67
72262;BME280;60173;52.112;8.648;2023-04-02T00:11:53;100137.69;;;3.05;98.68
72262;BME280;60173;52.112;8.648;2023-04-02T00:14:41;100135.06;;;3.10;99.02
72262;BME280;60173;52.112;8.648;2023-04-02T00:17:10;100137.69;;;3.05;98.62
72262;BME280;60173;52.112;8.648;2023-04-02T00:19:42;100143.34;;;3.09;98.16
72262;BME280;60173;52.112;8.648;2023-04-02T00:22:15;100143.28;;;3.04;97.83
72262;BME280;60173;52.112;8.648;2023-04-02T00:24:49;100154.81;;;2.99;96.99
72262;BME280;60173;52.112;8.648;2023-04-02T00:27:15;100156.97;;;3.02;97.50
72262;BME280;60173;52.112;8.648;2023-04-02T00:29:50;100165.75;;;2.92;97.79
72262;BME280;60173;52.112;8.648;2023-04-02T00:32:28;100173.47;;;2.89;99.00
72262;BME280;60173;52.112;8.648;2023-04-02T00:34:57;100172.31;;;2.80;98.98
72262;BME280;60173;52.112;8.648;2023-04-02T00:37:26;100176.66;;;2.81;99.60
72262;BME280;60173;52.112;8.648;2023-04-02T00:39:59;100184.69;;;2.81;99.77
72262;BME280;60173;52.112;8.648;2023-04-02T00:42:29;100177.53;;;2.64;99.74
72262;BME280;60173;52.112;8.648;2023-04-02T00:44:56;100178.00;;;2.56;100.00
72262;BME280;60173;52.112;8.648;2023-04-02T00:47:41;100181.97;;;2.54;100.00
72262;BME280;60173;52.112;8.648;2023-04-02T00:52:38;100190.28;;;2.52;100.00
72262;BME280;60173;52.112;8.648;2023-04-02T00:55:12;100195.88;;;2.51;100.00
72262;BME280;60173;52.112;8.648;2023-04-02T00:57:41;100202.25;;;2.44;100.00
72262;BME280;60173;52.112;8.648;2023-04-02T01:00:29;100197.69;;;2.45;100.00
72262;BME280;60173;52.112;8.648;2023-04-02T01:03:24;100203.63;;;2.47;100.00
72262;BME280;60173;52.112;8.648;2023-04-02T01:06:14;100218.56;;;2.43;100.00
72262;BME280;60173;52.112;8.648;2023-04-02T01:11:51;100216.41;;;2.40;100.00
72262;BME280;60173;52.112;8.648;2023-04-02T01:19:54;100231.81;;;2.49;99.66
72262;BME280;60173;52.112;8.648;2023-04-02T01:22:31;100233.97;;;2.31;99.39
72262;BME280;60173;52.112;8.648;2023-04-02T01:25:02;100246.75;;;2.23;99.63
72262;BME280;60173;52.112;8.648;2023-04-02T01:27:35;100248.28;;;2.19;99.15
72262;BME280;60173;52.112;8.648;2023-04-02T01:30:05;100249.94;;;2.20;98.66
72262;BME280;60173;52.112;8.648;2023-04-02T01:32:32;100263.19;;;2.10;98.67
72262;BME280;60173;52.112;8.648;2023-04-02T01:34:59;100267.50;;;2.11;98.59
72262;BME280;60173;52.112;8.648;2023-04-02T01:45:39;100274.50;;;1.95;97.52
72262;BME280;60173;52.112;8.648;2023-04-02T01:48:31;100294.94;;;1.85;97.15
72262;BME280;60173;52.112;8.648;2023-04-02T01:50:58;100295.41;;;1.98;96.92
72262;BME280;60173;52.112;8.648;2023-04-02T01:53:27;100300.16;;;1.91;96.61
72262;BME280;60173;52.112;8.648;2023-04-02T01:56:00;100311.00;;;1.85;96.82
72262;BME280;60173;52.112;8.648;2023-04-02T01:58:29;100314.03;;;1.88;96.56
72262;BME280;60173;52.112;8.648;2023-04-02T02:01:12;100318.94;;;1.96;96.58
72262;BME280;60173;52.112;8.648;2023-04-02T02:03:41;100326.75;;;1.98;96.40
72262;BME280;60173;52.112;8.648;2023-04-02T02:06:13;100327.00;;;1.96;95.85
72262;BME280;60173;52.112;8.648;2023-04-02T02:08:45;100337.16;;;1.94;95.25
72262;BME280;60173;52.112;8.648;2023-04-02T02:11:15;100348.75;;;2.00;95.65
72262;BME280;60173;52.112;8.648;2023-04-02T02:13:56;100344.13;;;1.95;95.68
72262;BME280;60173;52.112;8.648;2023-04-02T02:16:23;100356.53;;;2.01;95.41
72262;BME280;60173;52.112;8.648;2023-04-02T02:18:53;100357.75;;;1.94;95.30
72262;BME280;60173;52.112;8.648;2023-04-02T02:23:51;100371.00;;;1.84;94.73
72262;BME280;60173;52.112;8.648;2023-04-02T02:26:18;100368.94;;;1.91;94.32
72262;BME280;60173;52.112;8.648;2023-04-02T02:28:46;100379.03;;;1.84;94.53
72262;BME280;60173;52.112;8.648;2023-04-02T02:31:19;100383.41;;;1.90;94.08
72262;BME280;60173;52.112;8.648;2023-04-02T02:33:51;100385.09;;;1.96;93.28
72262;BME280;60173;52.112;8.648;2023-04-02T02:36:27;100381.59;;;1.78;93.94
72262;BME280;60173;52.112;8.648;2023-04-02T02:38:57;100387.44;;;1.75;93.29
72262;BME280;60173;52.112;8.648;2023-04-02T02:44:16;100390.59;;;1.72;92.80
72262;BME280;60173;52.112;8.648;2023-04-02T02:46:55;100401.22;;;1.67;92.51
72262;BME280;60173;52.112;8.648;2023-04-02T02:49:30;100404.09;;;1.77;92.09
72262;BME280;60173;52.112;8.648;2023-04-02T02:52:12;100409.03;;;1.69;91.93
72262;BME280;60173;52.112;8.648;2023-04-02T02:54:43;100413.78;;;1.67;92.47
72262;BME280;60173;52.112;8.648;2023-04-02T02:57:16;100407.78;;;1.60;91.73
72262;BME280;60173;52.112;8.648;2023-04-02T02:59:44;100421.72;;;1.62;91.78
72262;BME280;60173;52.112;8.648;2023-04-02T03:02:13;100425.56;;;1.66;91.30
72262;BME280;60173;52.112;8.648;2023-04-02T03:04:40;100426.06;;;1.63;90.92
72262;BME280;60173;52.112;8.648;2023-04-02T03:07:06;100428.00;;;1.67;91.21
72262;BME280;60173;52.112;8.648;2023-04-02T03:09:51;100443.16;;;1.62;90.68
72262;BME280;60173;52.112;8.648;2023-04-02T03:15:19;100454.88;;;1.72;90.52
72262;BME280;60173;52.112;8.648;2023-04-02T03:17:58;100450.41;;;1.49;89.87
72262;BME280;60173;52.112;8.648;2023-04-02T03:20:36;100449.09;;;1.64;90.16
72262;BME280;60173;52.112;8.648;2023-04-02T03:23:26;100465.94;;;1.64;90.68
72262;BME280;60173;52.112;8.648;2023-04-02T03:26:03;100470.16;;;1.60;90.13
72262;BME280;60173;52.112;8.648;2023-04-02T03:28:36;100469.00;;;1.56;90.17
72262;BME280;60173;52.112;8.648;2023-04-02T03:31:18;100486.22;;;1.60;89.88
72262;BME280;60173;52.112;8.648;2023-04-02T03:33:57;100489.94;;;1.59;89.72
72262;BME280;60173;52.112;8.648;2023-04-02T03:36:32;100494.59;;;1.64;90.30
72262;BME280;60173;52.112;8.648;2023-04-02T03:39:09;100512.22;;;1.48;91.40
72262;BME280;60173;52.112;8.648;2023-04-02T03:41:47;100511.25;;;1.66;90.74
72262;BME280;60173;52.112;8.648;2023-04-02T03:44:22;100518.84;;;1.57;90.29
72262;BME280;60173;52.112;8.648;2023-04-02T03:47:02;100532.72;;;1.42;90.43
72262;BME280;60173;52.112;8.648;2023-04-02T03:49:40;100543.91;;;1.39;90.11
72262;BME280;60173;52.112;8.648;2023-04-02T03:52:11;100546.59;;;1.27;90.17
72262;BME280;60173;52.112;8.648;2023-04-02T03:54:39;100546.66;;;1.32;90.17
72262;BME280;60173;52.112;8.648;2023-04-02T03:57:34;100554.69;;;1.32;90.55
72262;BME280;60173;52.112;8.648;2023-04-02T04:00:12;100561.25;;;1.25;91.24
72262;BME280;60173;52.112;8.648;2023-04-02T04:02:43;100554.59;;;1.27;90.82
72262;BME280;60173;52.112;8.648;2023-04-02T04:07:50;100571.34;;;1.23;90.91
72262;BME280;60173;52.112;8.648;2023-04-02T04:10:21;100579.25;;;1.29;91.21
72262;BME280;60173;52.112;8.648;2023-04-02T04:12:50;100583.34;;;1.20;90.98
72262;BME280;60173;52.112;8.648;2023-04-02T04:15:28;100579.84;;;1.20;90.17
72262;BME280;60173;52.112;8.648;2023-04-02T04:18:16;100589.75;;;1.31;90.47
72262;BME280;60173;52.112;8.648;2023-04-02T04:20:52;100589.75;;;1.19;90.76
72262;BME280;60173;52.112;8.648;2023-04-02T04:23:45;100587.88;;;1.20;90.27
72262;BME280;60173;52.112;8.648;2023-04-02T04:26:21;100596.69;;;1.32;90.04
72262;BME280;60173;52.112;8.648;2023-04-02T04:28:59;100600.91;;;1.28;90.07
72262;BME280;60173;52.112;8.648;2023-04-02T04:31:47;100608.56;;;1.24;89.50
72262;BME280;60173;52.112;8.648;2023-04-02T04:34:39;100610.34;;;1.30;89.66
72262;BME280;60173;52.112;8.648;2023-04-02T04:37:16;100614.97;;;1.23;89.21
72262;BME280;60173;52.112;8.648;2023-04-02T04:39:48;100622.06;;;1.18;89.27
72262;BME280;60173;52.112;8.648;2023-04-02T04:42:21;100631.03;;;1.23;88.66
72262;BME280;60173;52.112;8.648;2023-04-02T04:47:46;100640.44;;;1.38;88.22
72262;BME280;60173;52.112;8.648;2023-04-02T04:50:35;100642.44;;;1.19;88.28
72262;BME280;60173;52.112;8.648;2023-04-02T04:53:07;100652.88;;;1.20;87.86
72262;BME280;60173;52.112;8.648;2023-04-02T04:55:40;100660.22;;;1.13;87.74
72262;BME280;60173;52.112;8.648;2023-04-02T04:58:21;100663.47;;;1.15;87.68
72262;BME280;60173;52.112;8.648;2023-04-02T05:01:09;100677.22;;;1.19;87.64
72262;BME280;60173;52.112;8.648;2023-04-02T05:03:50;100686.06;;;1.19;87.21
72262;BME280;60173;52.112;8.648;2023-04-02T05:06:24;100691.63;;;1.18;87.10
72262;BME280;60173;52.112;8.648;2023-04-02T05:09:03;100693.28;;;1.30;87.14
72262;BME280;60173;52.112;8.648;2023-04-02T05:11:36;100702.94;;;1.31;86.92
72262;BME280;60173;52.112;8.648;2023-04-02T05:14:09;100704.69;;;1.38;86.59
72262;BME280;60173;52.112;8.648;2023-04-02T05:16:44;100715.38;;;1.26;87.00
72262;BME280;60173;52.112;8.648;2023-04-02T05:19:27;100720.72;;;1.26;87.03
72262;BME280;60173;52.112;8.648;2023-04-02T05:24:48;100724.94;;;1.33;86.52
72262;BME280;60173;52.112;8.648;2023-04-02T05:27:30;100732.25;;;1.38;86.18
72262;BME280;60173;52.112;8.648;2023-04-02T05:30:31;100744.22;;;1.35;86.53
72262;BME280;60173;52.112;8.648;2023-04-02T05:33:03;100740.84;;;1.28;85.89
72262;BME280;60173;52.112;8.648;2023-04-02T05:35:33;100744.81;;;1.26;85.88
72262;BME280;60173;52.112;8.648;2023-04-02T05:38:01;100752.38;;;1.29;86.04
72262;BME280;60173;52.112;8.648;2023-04-02T05:40:41;100761.03;;;1.43;85.61
72262;BME280;60173;52.112;8.648;2023-04-02T05:43:10;100762.97;;;1.35;85.32
72262;BME280;60173;52.112;8.648;2023-04-02T05:45:43;100769.66;;;1.45;85.23
72262;BME280;60173;52.112;8.648;2023-04-02T05:48:16;100768.81;;;1.56;84.70
72262;BME280;60173;52.112;8.648;2023-04-02T05:50:48;100774.03;;;1.27;85.01
72262;BME280;60173;52.112;8.648;2023-04-02T05:58:31;100793.59;;;1.40;85.10
72262;BME280;60173;52.112;8.648;2023-04-02T06:07:10;100801.94;;;1.31;83.76
72262;BME280;60173;52.112;8.648;2023-04-02T06:09:42;100817.06;;;1.26;84.30
72262;BME280;60173;52.112;8.648;2023-04-02T06:12:25;100826.63;;;1.33;84.05
72262;BME280;60173;52.112;8.648;2023-04-02T06:14:54;100823.94;;;1.33;83.74
72262;BME280;60173;52.112;8.648;2023-04-02T06:17:20;100833.28;;;1.43;83.68
72262;BME280;60173;52.112;8.648;2023-04-02T06:19:47;100835.38;;;1.41;82.82
72262;BME280;60173;52.112;8.648;2023-04-02T06:22:22;100849.03;;;1.51;82.04
72262;BME280;60173;52.112;8.648;2023-04-02T06:24:58;100854.94;;;1.53;82.48
72262;BME280;60173;52.112;8.648;2023-04-02T06:27:27;100870.16;;;1.41;82.77
72262;BME280;60173;52.112;8.648;2023-04-02T06:29:58;100871.91;;;1.47;82.79
72262;BME280;60173;52.112;8.648;2023-04-02T06:32:26;100882.22;;;1.62;82.04
72262;BME280;60173;52.112;8.648;2023-04-02T06:34:52;100883.09;;;1.44;82.14
72262;BME280;60173;52.112;8.648;2023-04-02T06:37:27;100895.38;;;1.63;81.50
72262;BME280;60173;52.112;8.648;2023-04-02T06:39:56;100896.16;;;1.52;81.86
72262;BME280;60173;52.112;8.648;2023-04-02T06:42:36;100897.22;;;1.51;81.38
72262;BME280;60173;52.112;8.648;2023-04-02T06:45:04;100905.81;;;1.53;81.19
72262;BME280;60173;52.112;8.648;2023-04-02T06:47:40;100912.50;;;1.62;80.81
72262;BME280;60173;52.112;8.648;2023-04-02T06:50:14;100918.88;;;1.61;80.48
72262;BME280;60173;52.112;8.648;2023-04-02T06:52:51;100922.66;;;1.72;79.76
72262;BME280;60173;52.112;8.648;2023-04-02T06:57:54;100931.53;;;1.84;80.59
72262;BME280;60173;52.112;8.648;2023-04-02T07:00:23;100930.84;;;1.58;80.32
72262;BME280;60173;52.112;8.648;2023-04-02T07:02:51;100937.97;;;1.65;80.34
72262;BME280;60173;52.112;8.648;2023-04-02T07:05:18;100942.25;;;1.84;79.84
72262;BME280;60173;52.112;8.648;2023-04-02T07:07:45;100945.81;;;1.66;79.84
72262;BME280;60173;52.112;8.648;2023-04-02T07:10:11;100944.06;;;1.72;79.38
72262;BME280;60173;52.112;8.648;2023-04-02T07:12:37;100956.97;;;1.63;80.16
72262;BME280;60173;52.112;8.648;2023-04-02T07:15:04;100963.31;;;1.80;79.26
72262;BME280;60173;52.112;8.648;2023-04-02T07:17:31;100953.28;;;1.76;79.72
72262;BME280;60173;52.112;8.648;2023-04-02T07:19:57;100974.09;;;1.62;79.72
72262;BME280;60173;52.112;8.648;2023-04-02T07:22:23;100977.31;;;1.83;78.48
72262;BME280;60173;52.112;8.648;2023-04-02T07:24:50;100983.28;;;1.96;77.11
72262;BME280;60173;52.112;8.648;2023-04-02T07:27:16;100994.03;;;2.08;76.10
72262;BME280;60173;52.112;8.648;2023-04-02T07:29:42;100993.91;;;2.03;75.99
72262;BME280;60173;52.112;8.648;2023-04-02T07:32:10;100991.94;;;2.10;75.31
72262;BME280;60173;52.112;8.648;2023-04-02T07:34:38;101004.81;;;2.20;73.98
72262;BME280;60173;52.112;8.648;2023-04-02T07:37:04;101008.47;;;2.37;73.54
72262;BME280;60173;52.112;8.648;2023-04-02T07:39:31;101008.84;;;2.11;73.00
72262;BME280;60173;52.112;8.648;2023-04-02T07:42:01;101019.31;;;2.00;73.39
72262;BME280;60173;52.112;8.648;2023-04-02T07:44:28;101019.34;;;2.12;73.72
72262;BME280;60173;52.112;8.648;2023-04-02T07:46:54;101027.56;;;2.29;72.68
72262;BME280;60173;52.112;8.648;2023-04-02T07:49:21;101028.03;;;2.38;72.15
72262;BME280;60173;52.112;8.648;2023-04-02T07:51:47;101041.25;;;2.09;74.11
72262;BME280;60173;52.112;8.648;2023-04-02T07:54:13;101036.59;;;2.16;73.23
72262;BME280;60173;52.112;8.648;2023-04-02T07:56:40;101042.22;;;2.26;73.03
72262;BME280;60173;52.112;8.648;2023-04-02T07:59:06;101047.44;;;2.63;72.32
72262;BME280;60173;52.112;8.648;2023-04-02T08:01:32;101051.53;;;2.78;72.36
72262;BME280;60173;52.112;8.648;2023-04-02T08:03:59;101055.59;;;2.57;72.27
72262;BME280;60173;52.112;8.648;2023-04-02T08:06:26;101053.22;;;2.48;71.19
72262;BME280;60173;52.112;8.648;2023-04-02T08:08:53;101062.69;;;2.51;70.96
72262;BME280;60173;52.112;8.648;2023-04-02T08:11:19;101061.59;;;2.29;71.33
72262;BME280;60173;52.112;8.648;2023-04-02T08:13:45;101073.88;;;2.18;71.79
72262;BME280;60173;52.112;8.648;2023-04-02T08:16:12;101087.38;;;2.11;72.12
72262;BME280;60173;52.112;8.648;2023-04-02T08:18:39;101088.66;;;2.09;71.56
72262;BME280;60173;52.112;8.648;2023-04-02T08:21:08;101089.78;;;2.01;72.12
72262;BME280;60173;52.112;8.648;2023-04-02T08:23:35;101096.34;;;2.17;72.08
72262;BME280;60173;52.112;8.648;2023-04-02T08:26:02;101094.72;;;2.16;71.98
72262;BME280;60173;52.112;8.648;2023-04-02T08:28:29;101096.19;;;2.30;72.05
72262;BME280;60173;52.112;8.648;2023-04-02T08:30:55;101097.88;;;2.97;72.21
72262;BME280;60173;52.112;8.648;2023-04-02T08:33:24;101100.03;;;2.64;71.00
72262;BME280;60173;52.112;8.648;2023-04-02T08:35:50;101104.47;;;2.70;70.85
72262;BME280;60173;52.112;8.648;2023-04-02T08:38:18;101109.28;;;3.04;70.62
72262;BME280;60173;52.112;8.648;2023-04-02T08:40:51;101108.13;;;2.88;69.39
72262;BME280;60173;52.112;8.648;2023-04-02T08:48:48;101133.34;;;2.26;70.46
72262;BME280;60173;52.112;8.648;2023-04-02T08:51:28;101131.38;;;2.52;70.20
72262;BME280;60173;52.112;8.648;2023-04-02T08:54:21;101146.25;;;2.78;69.59
72262;BME280;60173;52.112;8.648;2023-04-02T08:56:55;101156.00;;;3.38;67.42
72262;BME280;60173;52.112;8.648;2023-04-02T08:59:38;101151.22;;;3.05;66.90
72262;BME280;60173;52.112;8.648;2023-04-02T09:02:10;101155.78;;;3.28;67.75
72262;BME280;60173;52.112;8.648;2023-04-02T09:04:44;101168.38;;;3.15;67.82
72262;BME280;60173;52.112;8.648;2023-04-02T09:07:12;101166.06;;;3.54;67.28
72262;BME280;60173;52.112;8.648;2023-04-02T09:09:39;101165.72;;;3.39;67.58
72262;BME280;60173;52.112;8.648;2023-04-02T09:12:10;101166.72;;;3.14;67.19
72262;BME280;60173;52.112;8.648;2023-04-02T09:17:21;101169.09;;;3.70;66.06
72262;BME280;60173;52.112;8.648;2023-04-02T09:19:55;101177.84;;;3.89;65.67
72262;BME280;60173;52.112;8.648;2023-04-02T09:22:23;101184.16;;;3.94;65.78
72262;BME280;60173;52.112;8.648;2023-04-02T09:24:56;101176.91;;;3.83;65.08
72262;BME280;60173;52.112;8.648;2023-04-02T09:27:34;101186.19;;;4.16;65.12
72262;BME280;60173;52.112;8.648;2023-04-02T09:35:18;101183.13;;;3.72;67.06
72262;BME280;60173;52.112;8.648;2023-04-02T09:38:19;101195.94;;;3.81;66.17
72262;BME280;60173;52.112;8.648;2023-04-02T09:43:17;101217.56;;;3.39;66.21
72262;BME280;60173;52.112;8.648;2023-04-02T09:45:53;101209.03;;;3.31;66.32
72262;BME280;60173;52.112;8.648;2023-04-02T09:50:49;101224.47;;;3.94;65.43
72262;BME280;60173;52.112;8.648;2023-04-02T09:53:29;101218.38;;;3.87;66.61
72262;BME280;60173;52.112;8.648;2023-04-02T09:56:12;101236.97;;;3.65;66.18
72262;BME280;60173;52.112;8.648;2023-04-02T09:58:41;101230.19;;;3.98;67.07
72262;BME280;60173;52.112;8.648;2023-04-02T10:01:25;101235.06;;;4.65;64.11
72262;BME280;60173;52.112;8.648;2023-04-02T10:03:52;101243.50;;;4.57;63.40
72262;BME280;60173;52.112;8.648;2023-04-02T10:06:19;101251.34;;;4.06;63.57
72262;BME280;60173;52.112;8.648;2023-04-02T10:08:45;101249.69;;;3.70;65.05
72262;BME280;60173;52.112;8.648;2023-04-02T10:11:15;101263.25;;;3.98;64.22
72262;BME280;60173;52.112;8.648;2023-04-02T10:16:27;101262.03;;;4.41;64.27
72262;BME280;60173;52.112;8.648;2023-04-02T10:21:36;101256.25;;;3.74;65.66
72262;BME280;60173;52.112;8.648;2023-04-02T10:24:12;101269.53;;;4.16;64.82
72262;BME280;60173;52.112;8.648;2023-04-02T10:32:26;101281.59;;;4.13;64.80
72262;BME280;60173;52.112;8.648;2023-04-02T10:34:59;101290.34;;;4.84;64.09
72262;BME280;60173;52.112;8.648;2023-04-02T10:37:39;101282.59;;;4.47;63.90
72262;BME280;60173;52.112;8.648;2023-04-02T10:40:13;101293.25;;;4.42;64.48
72262;BME280;60173;52.112;8.648;2023-04-02T10:45:45;101295.44;;;4.97;62.71
72262;BME280;60173;52.112;8.648;2023-04-02T10:48:18;101298.13;;;4.97;62.97
72262;BME280;60173;52.112;8.648;2023-04-02T10:53:17;101306.13;;;4.92;62.86
72262;BME280;60173;52.112;8.648;2023-04-02T10:55:51;101306.47;;;4.32;65.65
72262;BME280;60173;52.112;8.648;2023-04-02T10:58:24;101309.75;;;5.15;62.70
72262;BME280;60173;52.112;8.648;2023-04-02T11:00:55;101320.94;;;5.35;62.35
72262;BME280;60173;52.112;8.648;2023-04-02T11:03:45;101306.78;;;4.59;62.38
72262;BME280;60173;52.112;8.648;2023-04-02T11:06:17;101330.84;;;4.78;62.66
72262;BME280;60173;52.112;8.648;2023-04-02T11:08:48;101332.13;;;5.15;62.04
72262;BME280;60173;52.112;8.648;2023-04-02T11:11:22;101335.25;;;5.86;61.06
72262;BME280;60173;52.112;8.648;2023-04-02T11:14:29;101342.06;;;5.27;60.69
72262;BME280;60173;52.112;8.648;2023-04-02T11:16:56;101347.94;;;5.40;60.37
72262;BME280;60173;52.112;8.648;2023-04-02T11:19:27;101347.88;;;5.35;61.03
72262;BME280;60173;52.112;8.648;2023-04-02T11:21:56;101350.34;;;5.25;61.79
72262;BME280;60173;52.112;8.648;2023-04-02T11:29:32;101357.00;;;5.34;61.09
72262;BME280;60173;52.112;8.648;2023-04-02T11:39:54;101359.28;;;5.14;64.50
72262;BME280;60173;52.112;8.648;2023-04-02T11:42:24;101361.56;;;5.34;62.84
72262;BME280;60173;52.112;8.648;2023-04-02T11:44:52;101368.31;;;4.67;63.52
72262;BME280;60173;52.112;8.648;2023-04-02T11:47:26;101372.38;;;4.82;61.43
72262;BME280;60173;52.112;8.648;2023-04-02T11:52:49;101364.53;;;4.92;61.61
72262;BME280;60173;52.112;8.648;2023-04-02T11:55:21;101377.00;;;5.10;61.48
72262;BME280;60173;52.112;8.648;2023-04-02T11:58:10;101373.19;;;4.82;62.23
72262;BME280;60173;52.112;8.648;2023-04-02T12:09:48;101379.16;;;4.84;62.77
72262;BME280;60173;52.112;8.648;2023-04-02T12:14:55;101383.03;;;4.76;61.88
72262;BME280;60173;52.112;8.648;2023-04-02T12:17:38;101388.53;;;4.82;62.59
72262;BME280;60173;52.112;8.648;2023-04-02T12:22:32;101409.06;;;5.97;60.20
72262;BME280;60173;52.112;8.648;2023-04-02T12:25:05;101403.09;;;5.50;60.57
72262;BME280;60173;52.112;8.648;2023-04-02T12:27:42;101412.63;;;5.29;61.60
72262;BME280;60173;52.112;8.648;2023-04-02T12:30:20;101417.03;;;5.18;62.19
72262;BME280;60173;52.112;8.648;2023-04-02T12:32:47;101431.88;;;5.20;61.66
72262;BME280;60173;52.112;8.648;2023-04-02T12:35:34;101422.44;;;4.94;61.70
72262;BME280;60173;52.112;8.648;2023-04-02T12:38:00;101429.00;;;4.98;61.52
72262;BME280;60173;52.112;8.648;2023-04-02T12:40:27;101418.81;;;5.01;62.94
72262;BME280;60173;52.112;8.648;2023-04-02T12:42:53;101438.13;;;5.50;60.99
72262;BME280;60173;52.112;8.648;2023-04-02T12:45:26;101438.09;;;5.21;61.38
72262;BME280;60173;52.112;8.648;2023-04-02T12:47:56;101430.69;;;5.57;60.78
72262;BME280;60173;52.112;8.648;2023-04-02T12:50:23;101435.88;;;5.18;61.55
72262;BME280;60173;52.112;8.648;2023-04-02T12:52:50;101432.16;;;5.07;61.67
72262;BME280;60173;52.112;8.648;2023-04-02T12:55:22;101446.13;;;5.33;59.51
72262;BME280;60173;52.112;8.648;2023-04-02T12:57:57;101452.38;;;5.62;58.95
72262;BME280;60173;52.112;8.648;2023-04-02T13:02:58;101451.28;;;5.92;57.38
72262;BME280;60173;52.112;8.648;2023-04-02T13:05:37;101450.88;;;7.45;56.35
72262;BME280;60173;52.112;8.648;2023-04-02T13:08:05;101452.19;;;8.24;57.46
72262;BME280;60173;52.112;8.648;2023-04-02T13:10:41;101459.59;;;6.36;57.52
72262;BME280;60173;52.112;8.648;2023-04-02T13:13:16;101460.44;;;5.91;57.06
72262;BME280;60173;52.112;8.648;2023-04-02T13:15:59;101460.88;;;5.42;58.96
72262;BME280;60173;52.112;8.648;2023-04-02T13:18:27;101462.03;;;6.03;57.72
72262;BME280;60173;52.112;8.648;2023-04-02T13:20:58;101460.69;;;6.34;57.41
72262;BME280;60173;52.112;8.648;2023-04-02T13:25:56;101458.47;;;6.48;57.34
72262;BME280;60173;52.112;8.648;2023-04-02T13:28:24;101456.25;;;7.01;54.84
72262;BME280;60173;52.112;8.648;2023-04-02T13:30:50;101449.38;;;6.71;54.06
72262;BME280;60173;52.112;8.648;2023-04-02T13:33:17;101448.63;;;6.59;53.95
72262;BME280;60173;52.112;8.648;2023-04-02T13:35:43;101450.06;;;7.00;55.16
72262;BME280;60173;52.112;8.648;2023-04-02T13:38:10;101441.06;;;6.95;54.14
72262;BME280;60173;52.112;8.648;2023-04-02T13:40:36;101459.19;;;6.44;55.08
72262;BME280;60173;52.112;8.648;2023-04-02T13:43:04;101459.47;;;6.42;56.04
72262;BME280;60173;52.112;8.648;2023-04-02T13:45:37;101448.81;;;6.36;56.60
72262;BME280;60173;52.112;8.648;2023-04-02T13:48:05;101454.06;;;6.25;56.80
72262;BME280;60173;52.112;8.648;2023-04-02T13:50:33;101455.63;;;6.94;55.99
72262;BME280;60173;52.112;8.648;2023-04-02T13:53:04;101458.16;;;7.00;55.11
72262;BME280;60173;52.112;8.648;2023-04-02T13:55:38;101464.28;;;6.57;56.43
72262;BME280;60173;52.112;8.648;2023-04-02T13:58:07;101458.56;;;6.37;56.06
72262;BME280;60173;52.112;8.648;2023-04-02T14:00:35;101464.25;;;6.23;57.07
72262;BME280;60173;52.112;8.648;2023-04-02T14:03:07;101455.19;;;6.63;57.89
72262;BME280;60173;52.112;8.648;2023-04-02T14:05:45;101447.16;;;6.68;56.94
72262;BME280;60173;52.112;8.648;2023-04-02T14:11:31;101462.88;;;6.38;56.26
72262;BME280;60173;52.112;8.648;2023-04-02T14:17:28;101464.50;;;6.72;55.20
72262;BME280;60173;52.112;8.648;2023-04-02T14:26:06;101462.81;;;6.88;55.06
72262;BME280;60173;52.112;8.648;2023-04-02T14:28:52;101446.72;;;7.15;55.07
72262;BME280;60173;52.112;8.648;2023-04-02T14:31:52;101463.09;;;7.09;54.33
72262;BME280;60173;52.112;8.648;2023-04-02T14:37:21;101474.56;;;7.16;54.90
72262;BME280;60173;52.112;8.648;2023-04-02T14:42:43;101471.91;;;7.92;52.11
72262;BME280;60173;52.112;8.648;2023-04-02T14:45:36;101472.59;;;8.04;52.17
72262;BME280;60173;52.112;8.648;2023-04-02T14:48:19;101469.28;;;8.62;52.09
72262;BME280;60173;52.112;8.648;2023-04-02T14:50:50;101469.56;;;8.33;51.46
72262;BME280;60173;52.112;8.648;2023-04-02T14:53:24;101460.47;;;8.39;51.44
72262;BME280;60173;52.112;8.648;2023-04-02T14:55:55;101467.38;;;8.57;53.32
72262;BME280;60173;52.112;8.648;2023-04-02T14:58:29;101467.16;;;7.50;53.61
72262;BME280;60173;52.112;8.648;2023-04-02T15:01:17;101462.47;;;7.95;53.42
72262;BME280;60173;52.112;8.648;2023-04-02T15:04:15;101483.84;;;7.69;53.32
72262;BME280;60173;52.112;8.648;2023-04-02T15:06:47;101474.97;;;7.08;53.91
72262;BME280;60173;52.112;8.648;2023-04-02T15:09:22;101476.69;;;7.58;53.70
72262;BME280;60173;52.112;8.648;2023-04-02T15:11:56;101485.59;;;7.14;53.66
72262;BME280;60173;52.112;8.648;2023-04-02T15:14:32;101478.44;;;7.03;53.75
72262;BME280;60173;52.112;8.648;2023-04-02T15:17:00;101469.28;;;7.75;54.52
72262;BME280;60173;52.112;8.648;2023-04-02T15:19:26;101474.81;;;7.36;55.11
72262;BME280;60173;52.112;8.648;2023-04-02T15:27:41;101480.97;;;7.81;51.96
72262;BME280;60173;52.112;8.648;2023-04-02T15:30:14;101479.88;;;7.77;51.54
72262;BME280;60173;52.112;8.648;2023-04-02T15:32:43;101488.44;;;7.68;52.06
72262;BME280;60173;52.112;8.648;2023-04-02T15:38:09;101490.31;;;7.68;52.62
72262;BME280;60173;52.112;8.648;2023-04-02T15:41:03;101494.84;;;7.84;53.86
72262;BME280;60173;52.112;8.648;2023-04-02T15:43:40;101509.59;;;7.99;53.30
72262;BME280;60173;52.112;8.648;2023-04-02T15:46:26;101504.63;;;7.41;52.12
72262;BME280;60173;52.112;8.648;2023-04-02T15:49:04;101501.84;;;7.58;52.09
72262;BME280;60173;52.112;8.648;2023-04-02T15:51:49;101511.38;;;7.66;51.77
72262;BME280;60173;52.112;8.648;2023-04-02T15:54:25;101514.31;;;7.86;52.50
72262;BME280;60173;52.112;8.648;2023-04-02T15:57:09;101518.06;;;8.07;53.00
72262;BME280;60173;52.112;8.648;2023-04-02T16:00:02;101516.31;;;7.08;52.68